Terminal Aerodrome Forecast
Issued by NWS Tampa Bay Area, FL

Home | Current Version | Previous Version | Text Only | Print | Product List | Glossary On
Versions: 1 2 3 4 5 6 7 8 9 10 11 12 13 14 15 16 17 18 19 20 21 22 23 24 25 26
286
FTUS42 KTBW 142326
TAFTPA
TAF
KTPA 142326Z 1500/1606 18008KT P6SM SCT150
     FM150100 17005KT P6SM BKN100
     FM151400 21007KT P6SM BKN050
     FM152000 26007KT P6SM SCT050
     FM160100 36005KT P6SM SCT050=

USA.gov is the U.S. government's official web portal to all federal, state and local government web resources and services.